Time;durP1;ratioP1;P1;durP2;ratioP2;P2;SDS_P1;SDS_P2;PMS_P1;PMS_P2;Temp;Humidity;BMP_temperature;BMP_pressure;BME280_temperature;BME280_humidity;BME280_pressure;Samples;Min_cycle;Max_cycle;Signal;HPM_P1;HPM_P2
2022/05/19 00:02:06;;;;;;;4.18;2.80;;;19.10;64.40;;;;;;5036999;28;20017;-90
2022/05/19 00:04:34;;;;;;;4.13;2.47;;;19.10;64.50;;;;;;5039386;28;20028;-90
2022/05/19 00:07:00;;;;;;;3.70;2.95;;;19.10;64.50;;;;;;5036436;28;20014;-90
2022/05/19 00:09:27;;;;;;;3.53;3.08;;;19.00;64.50;;;;;;5033815;28;20014;-91
2022/05/19 00:11:54;;;;;;;4.55;2.83;;;19.00;64.60;;;;;;5036375;28;20039;-91
2022/05/19 00:14:21;;;;;;;2.97;2.67;;;19.00;64.70;;;;;;5035639;28;20033;-91
2022/05/19 00:16:47;;;;;;;2.83;2.60;;;18.90;64.60;;;;;;5035090;28;20029;-91
2022/05/19 00:19:13;;;;;;;3.83;2.50;;;18.90;64.70;;;;;;5028802;28;20034;-91
2022/05/19 00:21:39;;;;;;;5.13;2.90;;;18.80;64.70;;;;;;5028461;28;20056;-92
2022/05/19 00:24:13;;;;;;;5.43;2.70;;;18.80;64.70;;;;;;5029807;28;20018;-92
2022/05/19 00:26:38;;;;;;;4.97;2.60;;;18.70;64.70;;;;;;5032592;28;20026;-90
2022/05/19 00:29:10;;;;;;;2.72;2.53;;;18.70;64.80;;;;;;5028595;28;20048;-92
2022/05/19 00:31:37;;;;;;;3.45;2.55;;;18.70;64.90;;;;;;5025847;28;20049;-92
2022/05/19 00:34:11;;;;;;;3.33;2.85;;;18.60;64.70;;;;;;5041799;28;20028;-92
2022/05/19 00:36:37;;;;;;;2.83;2.53;;;18.60;64.80;;;;;;5043912;28;20025;-91
2022/05/19 00:39:04;;;;;;;3.08;2.28;;;18.50;64.70;;;;;;5032419;28;20037;-91
2022/05/19 00:41:30;;;;;;;8.45;2.55;;;18.40;64.70;;;;;;5046328;28;20030;-91
2022/05/19 00:44:02;;;;;;;2.85;2.45;;;18.40;64.80;;;;;;5022751;28;20215;-91
2022/05/19 00:46:42;;;;;;;3.72;2.88;;;18.30;65.00;;;;;;5029308;28;20061;-92
2022/05/19 00:49:19;;;;;;;2.58;2.20;;;18.20;65.60;;;;;;5022176;28;20025;-92
2022/05/19 00:51:48;;;;;;;7.07;2.80;;;18.10;65.10;;;;;;5025179;28;20029;-92
2022/05/19 00:54:24;;;;;;;7.43;2.60;;;18.10;65.10;;;;;;5022649;28;20021;-91
2022/05/19 00:56:52;;;;;;;9.13;2.60;;;18.00;65.40;;;;;;5026735;28;20429;-91
2022/05/19 01:00:00;;;;;;;3.08;2.88;;;18.00;65.40;;;;;;5024284;28;20040;-92
2022/05/19 01:02:32;;;;;;;4.68;2.88;;;17.90;65.40;;;;;;5037965;28;20036;-91
2022/05/19 01:05:03;;;;;;;;;;;17.90;65.40;;;;;;5027890;28;20026;-92
2022/05/19 01:07:49;;;;;;;3.45;2.90;;;17.80;64.80;;;;;;5046445;28;19909;-92
2022/05/19 01:10:15;;;;;;;4.13;2.65;;;17.80;65.20;;;;;;5030699;28;20029;-92
2022/05/19 01:12:46;;;;;;;3.90;2.60;;;17.80;65.10;;;;;;5028986;28;20030;-92
2022/05/19 01:15:17;;;;;;;3.80;2.38;;;17.70;65.30;;;;;;5029159;28;20120;-91
2022/05/19 01:17:43;;;;;;;5.72;2.50;;;17.70;65.30;;;;;;5028271;28;20029;-92
2022/05/19 01:20:17;;;;;;;2.95;2.50;;;17.60;65.30;;;;;;5027792;28;20033;-92
2022/05/19 01:22:55;;;;;;;7.20;2.60;;;17.60;65.50;;;;;;5037517;28;20029;-91
2022/05/19 01:25:35;;;;;;;3.90;2.53;;;17.60;65.50;;;;;;5035796;28;20037;-90
2022/05/19 01:28:01;;;;;;;3.80;2.40;;;17.50;65.60;;;;;;5035076;28;20018;-90
2022/05/19 01:30:27;;;;;;;3.45;2.53;;;17.50;65.50;;;;;;5037806;28;20064;-91
2022/05/19 01:32:54;;;;;;;5.80;2.35;;;17.50;65.50;;;;;;5038429;28;20052;-92
2022/05/19 01:35:21;;;;;;;4.95;2.28;;;17.50;65.50;;;;;;5031759;28;20026;-92
2022/05/19 01:37:47;;;;;;;3.55;2.10;;;17.50;65.40;;;;;;5028183;28;20035;-92
2022/05/19 01:40:15;;;;;;;2.47;2.17;;;17.50;65.30;;;;;;5040020;28;20033;-92
2022/05/19 01:42:41;;;;;;;2.47;2.10;;;17.40;65.20;;;;;;5033998;28;20022;-92
2022/05/19 01:45:48;;;;;;;3.78;1.88;;;17.30;65.10;;;;;;5021792;28;20197;-91
2022/05/19 01:48:28;;;;;;;1.90;1.77;;;17.30;65.20;;;;;;5023418;28;20039;-92
2022/05/19 01:51:24;;;;;;;4.60;2.00;;;17.30;65.20;;;;;;5035450;28;20022;-93
2022/05/19 01:53:56;;;;;;;3.38;2.05;;;17.10;65.20;;;;;;5029336;28;20141;-91
2022/05/19 01:56:45;;;;;;;2.60;2.33;;;17.10;65.30;;;;;;5026327;28;20045;-92
2022/05/19 01:59:40;;;;;;;3.08;2.30;;;17.00;65.40;;;;;;5028755;28;20037;-93
2022/05/19 02:02:30;;;;;;;3.67;2.53;;;16.90;65.50;;;;;;5026243;28;20090;-91
2022/05/19 02:05:18;;;;;;;3.00;2.65;;;16.80;65.60;;;;;;5024852;28;20025;-92
2022/05/19 02:07:47;;;;;;;3.35;2.65;;;16.80;66.30;;;;;;5023175;28;20093;-92
2022/05/19 02:10:25;;;;;;;2.35;2.15;;;16.70;65.80;;;;;;5018954;28;20145;-92
2022/05/19 02:12:50;;;;;;;3.55;2.67;;;16.70;66.10;;;;;;5043382;28;20085;-92
2022/05/19 02:15:22;;;;;;;4.78;2.40;;;16.70;66.10;;;;;;5020384;28;20064;-92
2022/05/19 02:17:50;;;;;;;3.83;2.33;;;16.60;66.30;;;;;;5021769;28;20034;-92
2022/05/19 02:20:26;;;;;;;5.75;2.67;;;16.60;66.40;;;;;;5024179;28;20101;-93
2022/05/19 02:22:51;;;;;;;5.53;2.80;;;16.60;66.50;;;;;;5023644;28;20017;-92
2022/05/19 02:25:41;;;;;;;2.92;2.50;;;16.50;66.40;;;;;;5026519;28;20079;-92
2022/05/19 02:28:18;;;;;;;3.33;2.50;;;16.50;66.50;;;;;;5020984;28;20141;-92
2022/05/19 02:30:44;;;;;;;2.90;2.60;;;16.40;66.60;;;;;;5037889;28;20056;-92
2022/05/19 02:33:15;;;;;;;6.18;2.90;;;16.30;66.60;;;;;;5021089;28;20033;-92
2022/05/19 02:35:41;;;;;;;2.88;2.63;;;16.30;66.90;;;;;;5025075;28;20049;-92
2022/05/19 02:38:06;;;;;;;3.17;2.72;;;16.20;66.80;;;;;;5026327;28;20099;-92
2022/05/19 02:40:35;;;;;;;3.95;3.00;;;16.10;66.90;;;;;;5028176;28;20037;-92
2022/05/19 02:43:01;;;;;;;3.53;2.83;;;16.00;67.00;;;;;;5026966;28;20021;-92
2022/05/19 02:45:28;;;;;;;3.45;2.53;;;15.90;67.20;;;;;;5029713;28;20052;-92
2022/05/19 02:47:53;;;;;;;5.32;3.00;;;15.90;67.50;;;;;;5037815;28;20036;-92
2022/05/19 02:50:20;;;;;;;4.78;3.15;;;15.80;67.60;;;;;;5029779;28;20033;-91
2022/05/19 02:52:46;;;;;;;5.57;3.05;;;15.70;68.20;;;;;;5029900;28;20034;-92
2022/05/19 02:55:13;;;;;;;4.00;2.80;;;15.70;67.80;;;;;;5031324;28;20033;-91
2022/05/19 02:57:39;;;;;;;3.13;2.45;;;15.60;67.90;;;;;;5029031;28;20037;-92
2022/05/19 03:00:18;;;;;;;4.20;2.60;;;15.60;68.00;;;;;;5029627;28;20093;-91
2022/05/19 03:02:44;;;;;;;3.75;2.40;;;15.60;68.20;;;;;;5024514;28;20382;-91
2022/05/19 03:05:12;;;;;;;6.97;2.92;;;15.60;68.20;;;;;;5028353;28;20033;-92
2022/05/19 03:07:38;;;;;;;4.13;3.00;;;15.60;68.30;;;;;;5029347;28;20162;-91
2022/05/19 03:10:05;;;;;;;3.75;2.90;;;15.60;68.40;;;;;;5028481;28;20029;-92
2022/05/19 03:12:31;;;;;;;3.28;2.70;;;15.50;68.40;;;;;;5033117;28;20033;-91
2022/05/19 03:14:57;;;;;;;2.60;2.40;;;15.50;68.40;;;;;;5030406;28;20101;-90
2022/05/19 03:17:24;;;;;;;4.13;2.67;;;15.50;68.40;;;;;;5027642;28;20048;-92
2022/05/19 03:19:53;;;;;;;3.85;2.40;;;15.50;68.50;;;;;;5027481;28;20025;-91
2022/05/19 03:22:19;;;;;;;3.63;2.42;;;15.40;68.50;;;;;;5033059;28;20037;-92
2022/05/19 03:24:44;;;;;;;3.70;2.78;;;15.40;68.50;;;;;;5030504;28;20122;-91
2022/05/19 03:27:10;;;;;;;4.07;2.33;;;15.40;68.50;;;;;;5031583;28;20056;-91
2022/05/19 03:29:36;;;;;;;5.78;2.70;;;15.40;68.70;;;;;;5031035;28;20044;-93
2022/05/19 03:32:02;;;;;;;6.05;2.95;;;15.30;68.60;;;;;;5039220;28;20063;-91
2022/05/19 03:34:33;;;;;;;5.25;2.67;;;15.30;68.80;;;;;;5032652;28;20044;-92
2022/05/19 03:37:03;;;;;;;4.75;2.80;;;15.30;68.90;;;;;;5039284;28;20466;-92
2022/05/19 03:39:34;;;;;;;8.00;3.17;;;15.30;69.00;;;;;;5030647;28;20023;-92
2022/05/19 03:42:00;;;;;;;4.25;3.10;;;15.30;69.00;;;;;;5032476;28;20017;-92
2022/05/19 03:44:26;;;;;;;5.60;3.00;;;15.30;68.90;;;;;;5029607;28;20061;-91
2022/05/19 03:46:51;;;;;;;3.95;2.90;;;15.30;69.00;;;;;;5032830;28;20032;-91
2022/05/19 03:49:17;;;;;;;3.78;2.90;;;15.20;69.00;;;;;;5030564;28;20099;-92
2022/05/19 03:51:43;;;;;;;5.57;2.95;;;15.20;69.10;;;;;;5032756;28;20044;-92
2022/05/19 03:54:08;;;;;;;3.92;3.25;;;15.20;70.00;;;;;;5031300;28;20027;-91
2022/05/19 03:56:37;;;;;;;7.65;2.70;;;15.30;69.80;;;;;;5035110;28;20029;-92
2022/05/19 03:59:02;;;;;;;3.00;2.47;;;15.30;69.90;;;;;;5034895;28;20089;-92
2022/05/19 04:01:29;;;;;;;3.88;2.80;;;15.40;69.70;;;;;;5034383;28;20028;-92
2022/05/19 04:03:55;;;;;;;3.78;2.47;;;15.50;69.60;;;;;;5035121;28;20028;-92
2022/05/19 04:06:21;;;;;;;3.10;2.55;;;15.50;69.50;;;;;;5034185;28;20033;-92
2022/05/19 04:08:48;;;;;;;4.80;2.58;;;15.60;69.60;;;;;;5032975;28;20033;-92
2022/05/19 04:11:14;;;;;;;3.33;2.22;;;15.60;69.60;;;;;;5033377;28;20061;-92
2022/05/19 04:13:39;;;;;;;2.38;2.10;;;15.70;69.80;;;;;;5037537;28;20025;-92
2022/05/19 04:16:05;;;;;;;3.33;2.50;;;15.70;69.70;;;;;;5035404;28;20044;-91
2022/05/19 04:18:31;;;;;;;2.53;2.33;;;15.70;69.60;;;;;;5029302;28;20072;-91
2022/05/19 04:20:56;;;;;;;4.40;2.60;;;15.80;69.40;;;;;;5032596;28;20080;-92
2022/05/19 04:23:22;;;;;;;4.43;3.20;;;15.80;69.30;;;;;;5031134;28;20068;-92
2022/05/19 04:25:48;;;;;;;6.07;2.95;;;15.80;69.30;;;;;;5038856;28;20037;-92
2022/05/19 04:28:14;;;;;;;3.22;2.85;;;15.80;69.50;;;;;;5033431;28;20052;-92
2022/05/19 04:30:42;;;;;;;3.10;2.70;;;15.90;69.50;;;;;;5040166;28;20084;-92
2022/05/19 04:33:09;;;;;;;4.32;3.00;;;15.90;69.40;;;;;;5031878;28;20029;-91
2022/05/19 04:35:35;;;;;;;4.00;2.95;;;16.00;69.20;;;;;;5031825;28;20437;-92
2022/05/19 04:38:06;;;;;;;3.30;2.58;;;16.00;69.00;;;;;;5035657;28;20077;-92
2022/05/19 04:40:44;;;;;;;5.13;2.70;;;16.00;69.00;;;;;;5030188;28;20568;-92
2022/05/19 04:43:12;;;;;;;4.80;2.97;;;16.00;68.90;;;;;;5023989;28;20504;-92
2022/05/19 04:45:38;;;;;;;3.53;2.70;;;16.10;68.90;;;;;;5029597;28;20119;-90
2022/05/19 04:48:04;;;;;;;3.92;2.63;;;16.00;69.00;;;;;;5034897;28;20201;-91
2022/05/19 04:50:30;;;;;;;3.28;2.88;;;16.10;69.30;;;;;;5033013;28;20029;-91
2022/05/19 04:52:58;;;;;;;2.88;2.63;;;16.30;69.30;;;;;;5035067;28;20160;-92
2022/05/19 04:55:25;;;;;;;6.05;2.75;;;16.40;69.40;;;;;;5025230;28;20029;-91
2022/05/19 04:57:51;;;;;;;2.63;2.40;;;16.50;69.10;;;;;;5034592;28;20408;-91
2022/05/19 05:00:16;;;;;;;2.90;2.58;;;16.60;68.90;;;;;;5032241;28;20116;-91
2022/05/19 05:02:46;;;;;;;4.68;2.83;;;16.70;68.50;;;;;;5034721;28;20025;-91
2022/05/19 05:05:12;;;;;;;5.72;2.60;;;16.80;68.40;;;;;;5033565;28;20029;-90
2022/05/19 05:07:38;;;;;;;9.40;2.90;;;16.80;68.20;;;;;;5031579;28;20045;-90
2022/05/19 05:10:04;;;;;;;4.35;2.50;;;16.90;68.00;;;;;;5058308;28;20013;-90
2022/05/19 05:12:30;;;;;;;3.08;2.63;;;17.10;67.80;;;;;;5048199;28;20032;-90
2022/05/19 05:14:55;;;;;;;5.80;2.70;;;17.10;67.60;;;;;;5056389;28;20017;-90
2022/05/19 05:17:21;;;;;;;9.82;3.08;;;17.20;67.30;;;;;;5041204;28;20025;-89
2022/05/19 05:19:48;;;;;;;5.72;2.53;;;17.30;67.10;;;;;;5058058;28;20029;-89
2022/05/19 05:22:13;;;;;;;4.43;2.78;;;17.40;67.10;;;;;;5048900;28;20018;-89
2022/05/19 05:24:39;;;;;;;3.08;2.78;;;17.40;66.90;;;;;;5052914;28;20025;-89
2022/05/19 05:27:05;;;;;;;4.43;3.20;;;17.50;66.80;;;;;;5049405;28;20009;-89
2022/05/19 05:29:32;;;;;;;3.92;3.00;;;17.50;66.80;;;;;;5050301;28;20048;-90
2022/05/19 05:31:58;;;;;;;3.25;2.95;;;17.50;66.80;;;;;;5052324;28;20093;-90
2022/05/19 05:34:24;;;;;;;7.32;2.72;;;17.50;66.80;;;;;;5051587;28;20085;-90
2022/05/19 05:36:50;;;;;;;3.88;2.13;;;17.50;66.70;;;;;;5051089;28;20071;-91
2022/05/19 05:39:16;;;;;;;3.38;2.30;;;17.50;66.40;;;;;;5055089;28;20025;-92
2022/05/19 05:41:42;;;;;;;5.20;2.40;;;17.50;66.40;;;;;;5056405;28;20032;-92
2022/05/19 05:44:08;;;;;;;2.05;1.85;;;17.50;66.30;;;;;;5050767;28;20034;-91
2022/05/19 05:46:34;;;;;;;4.47;2.08;;;17.40;66.00;;;;;;5033385;28;20034;-93
2022/05/19 05:49:00;;;;;;;2.67;2.00;;;17.40;66.00;;;;;;5036241;28;20045;-93
2022/05/19 05:51:25;;;;;;;1.98;1.88;;;17.40;66.00;;;;;;5043203;28;20053;-92
2022/05/19 05:53:51;;;;;;;4.30;2.05;;;17.40;65.90;;;;;;5041767;28;20052;-93
2022/05/19 05:56:19;;;;;;;2.40;1.75;;;17.40;65.70;;;;;;5045526;28;20045;-92
2022/05/19 05:58:44;;;;;;;5.50;2.15;;;17.40;65.70;;;;;;5042182;28;20030;-93
2022/05/19 06:01:14;;;;;;;2.28;2.08;;;17.40;65.80;;;;;;5041150;28;20137;-92
2022/05/19 06:03:40;;;;;;;5.18;1.90;;;17.40;65.90;;;;;;5042496;28;20021;-92
2022/05/19 06:06:05;;;;;;;4.18;1.98;;;17.50;66.10;;;;;;5035935;28;20018;-91
2022/05/19 06:08:32;;;;;;;4.35;1.77;;;17.50;65.90;;;;;;5026611;28;20099;-92
2022/05/19 06:10:59;;;;;;;2.40;1.88;;;17.60;65.90;;;;;;5045951;28;20128;-91
2022/05/19 06:13:25;;;;;;;3.40;2.00;;;17.60;65.60;;;;;;5051211;28;20043;-93
2022/05/19 06:15:53;;;;;;;4.40;2.10;;;17.70;65.60;;;;;;5038687;28;20024;-93
2022/05/19 06:18:19;;;;;;;3.97;1.73;;;17.70;65.80;;;;;;5034966;28;20023;-93
2022/05/19 06:20:45;;;;;;;5.07;2.25;;;17.80;65.80;;;;;;5029641;28;20057;-94
2022/05/19 06:23:12;;;;;;;2.67;1.55;;;17.80;65.70;;;;;;5041551;28;20021;-93
2022/05/19 06:25:38;;;;;;;3.53;1.90;;;17.90;65.70;;;;;;5042891;28;20034;-92
2022/05/19 06:28:04;;;;;;;4.63;1.98;;;18.00;65.50;;;;;;5024649;28;20029;-93
2022/05/19 06:30:31;;;;;;;2.15;1.80;;;18.00;65.30;;;;;;5027340;28;20061;-92
2022/05/19 06:32:57;;;;;;;5.30;1.83;;;18.10;65.30;;;;;;5029653;28;20021;-93
2022/05/19 06:35:29;;;;;;;3.58;1.70;;;18.10;65.20;;;;;;5027898;28;20036;-92
2022/05/19 06:37:58;;;;;;;4.72;1.60;;;18.10;65.10;;;;;;5024103;28;20029;-93
2022/05/19 06:40:27;;;;;;;2.85;1.73;;;18.20;65.10;;;;;;5036261;28;20071;-93
2022/05/19 06:42:57;;;;;;;4.10;1.30;;;18.30;65.00;;;;;;5046649;28;20029;-93
2022/05/19 06:45:25;;;;;;;3.97;1.40;;;18.30;64.80;;;;;;5043477;28;20030;-93
2022/05/19 06:47:51;;;;;;;5.22;1.80;;;18.40;64.80;;;;;;5046096;28;20025;-93
2022/05/19 06:50:18;;;;;;;3.38;1.55;;;18.50;64.90;;;;;;5039054;28;20030;-93
2022/05/19 06:52:45;;;;;;;5.72;1.67;;;18.60;64.90;;;;;;5045659;28;20040;-92
2022/05/19 06:55:12;;;;;;;2.28;1.48;;;18.70;64.60;;;;;;5044045;28;20037;-93
2022/05/19 06:57:38;;;;;;;4.90;1.50;;;18.80;64.60;;;;;;5042834;28;20032;-92
2022/05/19 07:00:06;;;;;;;3.08;1.40;;;18.90;64.20;;;;;;5049021;28;20049;-93
2022/05/19 07:02:32;;;;;;;2.88;1.70;;;19.10;64.10;;;;;;5046834;28;20013;-92
2022/05/19 07:05:04;;;;;;;2.35;1.50;;;19.30;63.90;;;;;;5038039;28;20045;-92
2022/05/19 07:07:30;;;;;;;3.70;1.58;;;19.40;63.60;;;;;;5032793;28;20065;-93
2022/05/19 07:09:56;;;;;;;3.47;1.58;;;19.60;63.40;;;;;;5034311;28;20453;-92
2022/05/19 07:12:23;;;;;;;3.47;1.35;;;19.90;63.40;;;;;;5033768;28;20053;-90
2022/05/19 07:14:50;;;;;;;5.13;1.55;;;20.30;63.20;;;;;;5006908;28;20037;-91
2022/05/19 07:17:16;;;;;;;2.60;1.30;;;20.60;62.60;;;;;;5014754;28;20029;-91
2022/05/19 07:22:26;;;;;;;3.97;1.50;;;21.20;61.50;;;;;;5035976;28;20109;-90
2022/05/19 07:24:52;;;;;;;3.08;1.55;;;21.60;61.10;;;;;;5010031;28;20188;-90
2022/05/19 07:27:17;;;;;;;4.53;1.48;;;21.80;60.80;;;;;;5014084;28;20030;-90
2022/05/19 07:29:43;;;;;;;2.42;1.70;;;22.10;60.90;;;;;;4999011;28;20026;-90
2022/05/19 07:32:09;;;;;;;2.08;1.30;;;22.40;60.60;;;;;;5016411;28;20061;-91
2022/05/19 07:34:36;;;;;;;2.38;1.38;;;22.60;59.90;;;;;;4992628;28;20407;-89
2022/05/19 07:37:03;;;;;;;5.82;1.40;;;22.90;59.70;;;;;;4994226;28;20113;-89
2022/05/19 07:39:28;;;;;;;4.38;1.52;;;23.20;59.40;;;;;;4995824;28;20065;-90
2022/05/19 07:41:56;;;;;;;6.88;1.95;;;23.50;59.30;;;;;;5006655;28;20069;-89
2022/05/19 07:44:24;;;;;;;2.85;1.73;;;23.80;58.60;;;;;;4991098;28;20045;-89
2022/05/19 07:46:50;;;;;;;3.95;1.50;;;23.80;58.00;;;;;;4994596;28;20029;-88
2022/05/19 07:49:16;;;;;;;1.75;1.48;;;23.80;58.20;;;;;;5000502;28;20022;-90
2022/05/19 07:51:44;;;;;;;1.48;1.38;;;24.00;58.30;;;;;;4997643;28;20045;-89
2022/05/19 07:54:14;;;;;;;4.15;2.22;;;24.30;58.10;;;;;;5011593;28;20034;-89
2022/05/19 07:56:41;;;;;;;6.28;1.83;;;24.40;58.90;;;;;;5010544;28;20034;-90
2022/05/19 07:59:08;;;;;;;1.77;1.50;;;24.60;58.70;;;;;;4994063;28;20021;-91
2022/05/19 08:01:34;;;;;;;4.90;1.55;;;24.80;58.30;;;;;;5006610;28;20053;-91
2022/05/19 08:04:01;;;;;;;2.78;1.45;;;25.20;58.40;;;;;;4993831;28;20041;-91
2022/05/19 08:06:29;;;;;;;4.43;1.60;;;25.30;57.50;;;;;;4996609;28;20026;-91
2022/05/19 08:08:58;;;;;;;5.03;1.42;;;25.40;57.30;;;;;;4992925;28;20034;-91
2022/05/19 08:11:24;;;;;;;4.35;1.70;;;25.70;57.20;;;;;;4994481;28;20097;-91
2022/05/19 08:16:33;;;;;;;4.53;1.40;;;26.10;56.20;;;;;;5013081;28;20105;-91
2022/05/19 08:18:59;;;;;;;3.97;1.52;;;26.20;56.10;;;;;;4995797;28;20078;-91
2022/05/19 08:21:25;;;;;;;2.55;1.70;;;26.30;56.20;;;;;;4997469;28;20018;-91
2022/05/19 08:23:51;;;;;;;2.00;1.52;;;26.30;56.20;;;;;;4997474;28;20056;-89
2022/05/19 08:26:20;;;;;;;3.20;1.55;;;26.30;56.10;;;;;;5027280;28;20034;-90
2022/05/19 08:28:50;;;;;;;4.35;1.52;;;26.20;55.90;;;;;;5016146;28;20026;-91
2022/05/19 08:31:20;;;;;;;1.92;1.40;;;26.30;56.40;;;;;;5013827;28;20032;-91
2022/05/19 08:33:47;;;;;;;7.22;2.13;;;26.80;56.80;;;;;;5014462;28;20022;-91
2022/05/19 08:36:13;;;;;;;4.28;1.50;;;27.00;55.70;;;;;;5012497;28;20053;-90
2022/05/19 08:38:40;;;;;;;4.38;2.08;;;26.90;55.70;;;;;;5013970;28;20029;-90
2022/05/19 08:41:36;;;;;;;6.00;1.77;;;26.80;56.10;;;;;;5031680;28;20038;-89
2022/05/19 08:44:27;;;;;;;2.22;1.55;;;27.00;56.10;;;;;;4993783;28;20456;-91
2022/05/19 08:46:55;;;;;;;4.28;1.60;;;27.10;55.70;;;;;;5015146;28;20080;-91
2022/05/19 08:49:38;;;;;;;1.73;1.55;;;27.30;56.60;;;;;;5010740;28;20033;-90
2022/05/19 08:52:25;;;;;;;2.28;1.50;;;27.50;55.70;;;;;;5014708;28;20493;-91
2022/05/19 08:54:56;;;;;;;5.25;1.58;;;27.70;56.30;;;;;;5012837;28;20025;-89
2022/05/19 08:58:05;;;;;;;2.53;1.30;;;27.90;55.90;;;;;;5013043;28;20036;-89
2022/05/19 09:00:41;;;;;;;3.33;1.70;;;28.20;56.00;;;;;;4984777;28;20033;-88
2022/05/19 09:03:18;;;;;;;2.95;1.50;;;28.20;56.20;;;;;;5026780;28;20544;-89
2022/05/19 09:06:06;;;;;;;3.38;2.00;;;28.30;56.30;;;;;;4998250;28;20018;-88
2022/05/19 09:08:50;;;;;;;1.90;1.70;;;28.40;55.00;;;;;;5018780;28;20022;-89
2022/05/19 09:11:23;;;;;;;5.10;1.50;;;28.40;54.50;;;;;;5012557;28;20409;-89
2022/05/19 09:14:03;;;;;;;1.90;1.35;;;28.70;55.00;;;;;;5008644;28;20030;-89
2022/05/19 09:16:34;;;;;;;2.58;1.70;;;29.20;53.80;;;;;;5008425;28;20065;-90
2022/05/19 09:19:26;;;;;;;3.33;1.42;;;29.60;52.70;;;;;;5013420;28;20038;-91
2022/05/19 09:22:10;;;;;;;1.60;1.48;;;29.90;52.20;;;;;;5016154;28;20041;-90
2022/05/19 09:24:37;;;;;;;1.40;1.30;;;30.60;51.90;;;;;;5001951;28;20041;-88
2022/05/19 09:27:04;;;;;;;1.70;1.58;;;31.30;51.40;;;;;;5001516;28;20036;-88
2022/05/19 09:29:44;;;;;;;2.00;1.52;;;32.10;50.20;;;;;;4995187;28;20026;-87
2022/05/19 09:32:23;;;;;;;2.63;1.40;;;32.80;48.80;;;;;;4994808;28;20161;-88
2022/05/19 09:34:51;;;;;;;4.82;1.50;;;33.50;48.60;;;;;;5016366;28;20053;-87
2022/05/19 09:37:51;;;;;;;5.50;1.67;;;34.30;47.60;;;;;;5010450;28;20040;-88
2022/05/19 09:40:28;;;;;;;3.95;1.73;;;34.90;45.80;;;;;;4963161;28;20206;-87
2022/05/19 09:43:18;;;;;;;3.70;1.45;;;35.00;44.70;;;;;;4993649;28;20410;-86
2022/05/19 09:45:53;;;;;;;5.53;1.73;;;35.20;44.60;;;;;;4993510;28;20065;-88
2022/05/19 09:48:27;;;;;;;2.20;1.42;;;36.30;44.90;;;;;;4993810;28;20069;-87
2022/05/19 09:51:01;;;;;;;3.22;1.42;;;37.10;44.00;;;;;;4995322;28;20061;-88
2022/05/19 09:53:29;;;;;;;2.35;1.80;;;37.90;43.40;;;;;;4994450;28;20109;-88
2022/05/19 09:56:02;;;;;;;3.60;1.50;;;38.70;42.80;;;;;;5001353;28;20026;-88
2022/05/19 09:58:37;;;;;;;1.60;1.50;;;39.50;42.10;;;;;;4996543;28;20065;-93
2022/05/19 10:05:08;;;;;;;1.77;1.38;;;40.60;41.60;;;;;;4972379;28;20045;-92
2022/05/19 10:08:00;;;;;;;2.63;1.63;;;40.60;40.30;;;;;;4991439;28;20026;-89
2022/05/19 10:11:17;;;;;;;2.78;1.27;;;40.40;40.10;;;;;;4990732;28;20030;-92
2022/05/19 10:36:36;;;;;;;2.33;1.33;;;39.70;39.60;;;;;;5117978;22;20121;-89
2022/05/19 10:42:48;;;;;;;3.78;1.40;;;38.10;40.60;;;;;;5032479;28;20076;-89
2022/05/19 10:52:53;;;;;;;1.95;1.15;;;35.90;43.50;;;;;;5074353;28;20044;-89
2022/05/19 10:56:11;;;;;;;1.83;1.10;;;35.40;42.20;;;;;;5036338;28;20083;-88
2022/05/19 11:05:34;;;;;;;1.63;1.25;;;33.60;44.70;;;;;;5054497;28;20027;-88
2022/05/19 11:08:39;;;;;;;3.55;1.48;;;33.40;44.90;;;;;;5036939;28;20020;-89
2022/05/19 11:11:44;;;;;;;2.05;1.60;;;33.40;45.20;;;;;;5036809;28;20029;-88
2022/05/19 11:14:22;;;;;;;3.45;1.30;;;33.20;45.50;;;;;;5025371;28;20037;-89
2022/05/19 11:17:02;;;;;;;4.60;1.60;;;33.10;45.20;;;;;;5028032;28;20026;-89
2022/05/19 11:19:33;;;;;;;1.52;1.13;;;33.00;45.70;;;;;;5049727;28;20991;-88
2022/05/19 11:22:07;;;;;;;4.60;1.60;;;33.00;46.00;;;;;;5035600;28;20043;-88
2022/05/19 11:27:53;;;;;;;1.58;1.45;;;32.80;46.20;;;;;;4941906;29;20046;-90
2022/05/19 11:30:33;;;;;;;2.60;1.30;;;32.70;46.60;;;;;;5032813;28;20028;-89
2022/05/19 11:33:02;;;;;;;2.10;1.52;;;32.60;46.20;;;;;;5036925;28;20621;-89
2022/05/19 11:35:32;;;;;;;3.47;1.42;;;32.40;45.80;;;;;;5029297;28;20576;-89
2022/05/19 11:39:04;;;;;;;;;;;;;;;;;;;;;
2022/05/19 11:55:47;;;;;;;2.67;1.48;;;32.20;47.10;;;;;;5025184;28;20040;-90
2022/05/19 12:01:20;;;;;;;2.35;1.45;;;32.00;47.50;;;;;;5020407;28;20053;-90
2022/05/19 12:04:48;;;;;;;2.38;1.50;;;32.00;47.40;;;;;;5014250;28;20026;-91
2022/05/19 12:07:50;;;;;;;3.92;1.63;;;32.00;47.60;;;;;;5008623;28;20030;-91
2022/05/19 12:10:31;;;;;;;2.97;1.63;;;32.00;47.60;;;;;;5008655;28;20030;-91
2022/05/19 12:13:07;;;;;;;2.50;1.40;;;32.10;48.00;;;;;;5015208;28;20037;-91
2022/05/19 12:16:06;;;;;;;5.97;1.80;;;32.10;47.40;;;;;;5015444;28;20037;-91
2022/05/19 12:18:32;;;;;;;3.33;1.60;;;32.00;48.40;;;;;;5019822;28;20029;-91
2022/05/19 12:21:00;;;;;;;2.80;1.55;;;32.00;48.10;;;;;;5013964;28;20025;-91
2022/05/19 12:23:30;;;;;;;4.25;1.60;;;32.20;48.30;;;;;;4995765;28;20471;-92
2022/05/19 12:27:06;;;;;;;2.50;1.65;;;32.30;48.90;;;;;;4995788;28;20472;-91
2022/05/19 12:29:46;;;;;;;1.63;1.40;;;32.40;48.50;;;;;;4985232;28;20116;-90
2022/05/19 12:32:52;;;;;;;2.97;1.45;;;32.40;48.50;;;;;;5016045;28;20579;-91
2022/05/19 12:35:18;;;;;;;3.72;1.58;;;32.50;49.00;;;;;;4995060;28;20506;-90
2022/05/19 12:37:49;;;;;;;2.85;1.40;;;32.60;48.40;;;;;;5014487;28;20022;-90
2022/05/19 12:40:15;;;;;;;;;;;32.80;49.00;;;;;;5015748;28;20539;-90
2022/05/19 12:43:37;;;;;;;4.13;1.63;;;32.80;49.10;;;;;;5018564;28;19905;-91
2022/05/19 12:49:35;;;;;;;3.03;1.55;;;32.80;48.90;;;;;;5005269;28;20705;-90
2022/05/19 12:52:21;;;;;;;1.98;1.55;;;32.70;48.70;;;;;;5015457;28;20036;-91
2022/05/19 12:55:29;;;;;;;5.25;1.80;;;32.70;48.20;;;;;;5013998;28;20105;-90
2022/05/19 12:57:58;;;;;;;3.05;1.80;;;32.50;49.40;;;;;;5003929;28;20037;-90
2022/05/19 13:00:34;;;;;;;2.70;1.50;;;32.50;49.10;;;;;;5018638;28;20025;-90
2022/05/19 13:03:27;;;;;;;1.85;1.55;;;32.40;49.00;;;;;;5035253;28;20057;-91
2022/05/19 13:06:05;;;;;;;2.67;1.65;;;32.30;49.50;;;;;;5030660;28;20029;-91
2022/05/19 13:08:38;;;;;;;1.75;1.65;;;32.20;49.40;;;;;;5014403;28;20028;-91
2022/05/19 13:11:19;;;;;;;3.85;1.60;;;32.20;49.30;;;;;;5019034;28;20555;-91
2022/05/19 13:14:00;;;;;;;4.93;1.65;;;32.10;49.70;;;;;;5015311;28;20030;-91
2022/05/19 13:16:42;;;;;;;4.23;1.80;;;32.10;49.30;;;;;;5018641;28;20021;-91
2022/05/19 13:19:14;;;;;;;5.40;2.30;;;32.10;49.90;;;;;;5028631;28;20248;-91
2022/05/19 13:21:58;;;;;;;4.50;1.85;;;32.00;49.40;;;;;;5017942;28;20321;-91
2022/05/19 13:24:27;;;;;;;5.15;1.80;;;31.90;49.20;;;;;;5015099;28;20076;-91
2022/05/19 13:32:36;;;;;;;4.53;1.80;;;31.60;49.70;;;;;;5017036;28;20052;-91
2022/05/19 13:35:31;;;;;;;4.32;1.77;;;31.50;49.00;;;;;;4998728;28;20105;-92
2022/05/19 13:54:40;;;;;;;6.23;2.03;;;31.30;49.80;;;;;;5027101;22;20031;-94
2022/05/19 13:57:10;;;;;;;4.03;2.03;;;31.20;49.50;;;;;;5057970;28;20279;-93
2022/05/19 13:59:36;;;;;;;4.15;1.70;;;31.20;49.60;;;;;;5059783;28;20025;-94
2022/05/19 14:02:09;;;;;;;5.30;1.73;;;31.10;50.10;;;;;;5051365;28;20029;-95
2022/05/19 14:04:38;;;;;;;8.68;1.95;;;31.10;50.00;;;;;;5059618;28;20017;-95
2022/05/19 14:07:06;;;;;;;3.80;1.98;;;31.10;50.50;;;;;;5040246;28;20378;-95
2022/05/19 14:09:52;;;;;;;3.42;1.88;;;31.00;50.20;;;;;;5044923;28;20021;-93
2022/05/19 14:12:26;;;;;;;6.68;2.28;;;31.00;49.60;;;;;;5037969;28;20068;-93
2022/05/19 14:15:02;;;;;;;4.95;1.80;;;30.90;49.70;;;;;;5026920;28;20085;-93
2022/05/19 14:17:39;;;;;;;2.83;1.70;;;30.90;49.80;;;;;;5040730;28;20067;-93
2022/05/19 14:20:09;;;;;;;6.00;2.10;;;30.80;49.50;;;;;;5037320;28;20064;-93
2022/05/19 14:22:35;;;;;;;6.38;1.88;;;30.80;50.30;;;;;;5030230;28;20034;-92
2022/05/19 14:25:04;;;;;;;3.95;1.77;;;30.80;51.00;;;;;;5029714;28;20029;-92
2022/05/19 14:27:32;;;;;;;4.32;1.95;;;30.90;50.80;;;;;;5032024;28;20037;-94
2022/05/19 14:30:13;;;;;;;4.63;1.90;;;30.90;50.40;;;;;;5032987;28;20096;-91
2022/05/19 14:32:55;;;;;;;4.10;2.00;;;31.00;50.20;;;;;;5061542;23;20031;-92
2022/05/19 14:35:35;;;;;;;;;;;30.90;50.60;;;;;;5031739;28;20059;-93
2022/05/19 14:38:02;;;;;;;8.07;3.83;;;31.00;50.60;;;;;;5025587;28;19919;-92
2022/05/19 14:43:35;;;;;;;4.55;2.60;;;30.90;50.10;;;;;;5047215;28;20091;-93
2022/05/19 14:46:02;;;;;;;4.97;2.40;;;30.90;49.80;;;;;;5038502;28;20022;-92
2022/05/19 14:48:35;;;;;;;6.65;2.42;;;30.90;49.90;;;;;;5028559;28;20089;-93
2022/05/19 14:51:02;;;;;;;3.08;2.22;;;30.80;49.60;;;;;;5024152;28;20023;-93
2022/05/19 14:53:29;;;;;;;4.68;2.10;;;30.70;49.70;;;;;;5028757;28;20034;-93
2022/05/19 14:56:04;;;;;;;6.43;2.15;;;30.60;50.00;;;;;;5030770;28;20085;-91